sensor_id;sensor_type;location;lat;lon;timestamp;pressure;altitude;pressure_sealevel;temperature;humidity
60974;BME280;46846;51.528;5.076;2023-03-14T00:00:50;98460.50;;;9.47;83.20
60974;BME280;46846;51.528;5.076;2023-03-14T00:03:15;98457.69;;;9.35;83.21
60974;BME280;46846;51.528;5.076;2023-03-14T00:05:41;98461.88;;;9.39;83.12
60974;BME280;46846;51.528;5.076;2023-03-14T00:08:06;98464.94;;;9.33;83.28
60974;BME280;46846;51.528;5.076;2023-03-14T00:10:31;98472.78;;;9.35;83.63
60974;BME280;46846;51.528;5.076;2023-03-14T00:12:57;98466.63;;;9.34;83.88
60974;BME280;46846;51.528;5.076;2023-03-14T00:15:22;98471.94;;;9.34;82.78
60974;BME280;46846;51.528;5.076;2023-03-14T00:17:47;98475.53;;;9.33;83.34
60974;BME280;46846;51.528;5.076;2023-03-14T00:20:13;98475.00;;;9.28;83.26
60974;BME280;46846;51.528;5.076;2023-03-14T00:22:38;98470.00;;;9.23;83.41
60974;BME280;46846;51.528;5.076;2023-03-14T00:25:05;98468.84;;;9.27;82.69
60974;BME280;46846;51.528;5.076;2023-03-14T00:27:31;98464.69;;;9.23;82.89
60974;BME280;46846;51.528;5.076;2023-03-14T00:29:57;98468.44;;;9.21;83.49
60974;BME280;46846;51.528;5.076;2023-03-14T00:32:22;98467.66;;;9.19;82.73
60974;BME280;46846;51.528;5.076;2023-03-14T00:34:48;98479.31;;;9.16;82.17
60974;BME280;46846;51.528;5.076;2023-03-14T00:37:13;98483.34;;;9.09;83.52
60974;BME280;46846;51.528;5.076;2023-03-14T00:39:39;98489.84;;;9.18;83.60
60974;BME280;46846;51.528;5.076;2023-03-14T00:42:04;98486.63;;;9.12;83.34
60974;BME280;46846;51.528;5.076;2023-03-14T00:44:29;98476.97;;;9.11;82.72
60974;BME280;46846;51.528;5.076;2023-03-14T00:46:55;98477.94;;;9.10;83.33
60974;BME280;46846;51.528;5.076;2023-03-14T00:49:20;98470.72;;;9.12;83.03
60974;BME280;46846;51.528;5.076;2023-03-14T00:51:46;98474.31;;;9.11;83.09
60974;BME280;46846;51.528;5.076;2023-03-14T00:54:11;98473.59;;;9.09;83.25
60974;BME280;46846;51.528;5.076;2023-03-14T00:56:36;98467.63;;;9.06;83.31
60974;BME280;46846;51.528;5.076;2023-03-14T00:59:02;98472.94;;;9.06;83.02
60974;BME280;46846;51.528;5.076;2023-03-14T01:01:27;98468.50;;;9.06;83.23
60974;BME280;46846;51.528;5.076;2023-03-14T01:03:55;98472.28;;;9.02;83.55
60974;BME280;46846;51.528;5.076;2023-03-14T01:06:25;98461.47;;;9.05;83.16
60974;BME280;46846;51.528;5.076;2023-03-14T01:08:51;98461.13;;;8.97;83.34
60974;BME280;46846;51.528;5.076;2023-03-14T01:11:21;98463.78;;;8.97;83.14
60974;BME280;46846;51.528;5.076;2023-03-14T01:13:48;98456.59;;;8.99;82.94
60974;BME280;46846;51.528;5.076;2023-03-14T01:16:13;98450.34;;;9.00;83.47
60974;BME280;46846;51.528;5.076;2023-03-14T01:18:40;98450.63;;;8.95;83.16
60974;BME280;46846;51.528;5.076;2023-03-14T01:21:20;98452.34;;;8.96;83.31
60974;BME280;46846;51.528;5.076;2023-03-14T01:23:48;98441.72;;;8.96;83.31
60974;BME280;46846;51.528;5.076;2023-03-14T01:26:16;98444.69;;;8.92;82.87
60974;BME280;46846;51.528;5.076;2023-03-14T01:28:44;98448.72;;;8.97;83.34
60974;BME280;46846;51.528;5.076;2023-03-14T01:31:10;98453.16;;;8.97;83.27
60974;BME280;46846;51.528;5.076;2023-03-14T01:33:35;98456.34;;;8.89;83.17
60974;BME280;46846;51.528;5.076;2023-03-14T01:36:02;98445.84;;;8.87;83.08
60974;BME280;46846;51.528;5.076;2023-03-14T01:38:29;98436.50;;;8.95;82.92
60974;BME280;46846;51.528;5.076;2023-03-14T01:40:54;98434.91;;;8.92;82.67
60974;BME280;46846;51.528;5.076;2023-03-14T01:43:20;98441.09;;;8.93;83.06
60974;BME280;46846;51.528;5.076;2023-03-14T01:48:25;98442.78;;;8.94;82.89
60974;BME280;46846;51.528;5.076;2023-03-14T01:50:53;98445.63;;;8.91;82.54
60974;BME280;46846;51.528;5.076;2023-03-14T01:53:18;98438.53;;;8.91;82.97
60974;BME280;46846;51.528;5.076;2023-03-14T01:55:47;98438.75;;;8.88;82.75
60974;BME280;46846;51.528;5.076;2023-03-14T01:58:14;98431.63;;;8.88;82.54
60974;BME280;46846;51.528;5.076;2023-03-14T02:00:40;98429.81;;;8.89;82.50
60974;BME280;46846;51.528;5.076;2023-03-14T02:03:10;98430.88;;;8.86;82.57
60974;BME280;46846;51.528;5.076;2023-03-14T02:05:39;98413.06;;;8.88;82.77
60974;BME280;46846;51.528;5.076;2023-03-14T02:08:08;98418.66;;;8.84;82.40
60974;BME280;46846;51.528;5.076;2023-03-14T02:10:41;98422.38;;;8.81;82.60
60974;BME280;46846;51.528;5.076;2023-03-14T02:13:08;98417.06;;;8.81;82.76
60974;BME280;46846;51.528;5.076;2023-03-14T02:15:35;98421.72;;;8.78;82.97
60974;BME280;46846;51.528;5.076;2023-03-14T02:18:02;98416.09;;;8.82;82.54
60974;BME280;46846;51.528;5.076;2023-03-14T02:26:31;98398.72;;;8.78;82.96
60974;BME280;46846;51.528;5.076;2023-03-14T02:29:00;98395.97;;;8.80;82.75
60974;BME280;46846;51.528;5.076;2023-03-14T02:31:25;98390.22;;;8.73;82.54
60974;BME280;46846;51.528;5.076;2023-03-14T02:33:51;98397.22;;;8.74;82.90
60974;BME280;46846;51.528;5.076;2023-03-14T02:36:17;98394.38;;;8.77;82.70
60974;BME280;46846;51.528;5.076;2023-03-14T02:41:20;98399.22;;;8.70;82.80
60974;BME280;46846;51.528;5.076;2023-03-14T02:43:46;98399.22;;;8.70;83.00
60974;BME280;46846;51.528;5.076;2023-03-14T02:46:16;98398.56;;;8.67;83.21
60974;BME280;46846;51.528;5.076;2023-03-14T02:48:53;98386.91;;;8.69;83.08
60974;BME280;46846;51.528;5.076;2023-03-14T02:51:21;98392.13;;;8.71;83.07
60974;BME280;46846;51.528;5.076;2023-03-14T02:53:47;98393.25;;;8.67;82.62
60974;BME280;46846;51.528;5.076;2023-03-14T02:56:15;98395.16;;;8.65;82.91
60974;BME280;46846;51.528;5.076;2023-03-14T02:58:41;98396.22;;;8.62;83.19
60974;BME280;46846;51.528;5.076;2023-03-14T03:01:06;98398.56;;;8.67;82.75
60974;BME280;46846;51.528;5.076;2023-03-14T03:03:32;98386.47;;;8.63;82.82
60974;BME280;46846;51.528;5.076;2023-03-14T03:05:57;98387.44;;;8.61;82.80
60974;BME280;46846;51.528;5.076;2023-03-14T03:08:25;98390.34;;;8.57;82.95
60974;BME280;46846;51.528;5.076;2023-03-14T03:10:51;98387.63;;;8.58;82.70
60974;BME280;46846;51.528;5.076;2023-03-14T03:13:17;98393.66;;;8.60;83.01
60974;BME280;46846;51.528;5.076;2023-03-14T03:15:43;98391.78;;;8.63;82.98
60974;BME280;46846;51.528;5.076;2023-03-14T03:18:09;98399.81;;;8.61;83.05
60974;BME280;46846;51.528;5.076;2023-03-14T03:20:34;98387.63;;;8.58;82.70
60974;BME280;46846;51.528;5.076;2023-03-14T03:22:59;98382.63;;;8.54;83.32
60974;BME280;46846;51.528;5.076;2023-03-14T03:25:25;98385.38;;;8.52;83.02
60974;BME280;46846;51.528;5.076;2023-03-14T03:27:50;98380.25;;;8.49;82.95
60974;BME280;46846;51.528;5.076;2023-03-14T03:30:16;98380.25;;;8.49;83.19
60974;BME280;46846;51.528;5.076;2023-03-14T03:32:41;98362.28;;;8.54;83.38
60974;BME280;46846;51.528;5.076;2023-03-14T03:35:06;98369.47;;;8.52;82.93
60974;BME280;46846;51.528;5.076;2023-03-14T03:37:33;98379.28;;;8.50;83.02
60974;BME280;46846;51.528;5.076;2023-03-14T03:39:58;98370.50;;;8.50;83.63
60974;BME280;46846;51.528;5.076;2023-03-14T03:42:24;98376.94;;;8.45;83.09
60974;BME280;46846;51.528;5.076;2023-03-14T03:44:51;98373.81;;;8.53;83.21
60974;BME280;46846;51.528;5.076;2023-03-14T03:47:16;98375.72;;;8.51;83.38
60974;BME280;46846;51.528;5.076;2023-03-14T03:49:41;98371.16;;;8.53;82.84
60974;BME280;46846;51.528;5.076;2023-03-14T03:52:07;98374.19;;;8.47;83.18
60974;BME280;46846;51.528;5.076;2023-03-14T03:54:32;98373.56;;;8.43;83.22
60974;BME280;46846;51.528;5.076;2023-03-14T03:56:58;98378.72;;;8.45;83.41
60974;BME280;46846;51.528;5.076;2023-03-14T03:59:23;98385.00;;;8.44;83.46
60974;BME280;46846;51.528;5.076;2023-03-14T04:01:48;98383.19;;;8.44;83.10
60974;BME280;46846;51.528;5.076;2023-03-14T04:04:13;98377.75;;;8.33;83.35
60974;BME280;46846;51.528;5.076;2023-03-14T04:06:39;98382.94;;;8.34;83.33
60974;BME280;46846;51.528;5.076;2023-03-14T04:09:05;98375.75;;;8.37;83.65
60974;BME280;46846;51.528;5.076;2023-03-14T04:11:30;98374.59;;;8.41;83.20
60974;BME280;46846;51.528;5.076;2023-03-14T04:13:56;98369.91;;;8.31;83.29
60974;BME280;46846;51.528;5.076;2023-03-14T04:16:23;98377.75;;;8.33;83.19
60974;BME280;46846;51.528;5.076;2023-03-14T04:18:49;98380.19;;;8.36;83.52
60974;BME280;46846;51.528;5.076;2023-03-14T04:21:15;98371.47;;;8.34;83.45
60974;BME280;46846;51.528;5.076;2023-03-14T04:23:40;98375.69;;;8.24;83.64
60974;BME280;46846;51.528;5.076;2023-03-14T04:26:06;98365.75;;;8.27;83.65
60974;BME280;46846;51.528;5.076;2023-03-14T04:28:31;98367.44;;;8.28;83.62
60974;BME280;46846;51.528;5.076;2023-03-14T04:30:57;98371.91;;;8.28;83.37
60974;BME280;46846;51.528;5.076;2023-03-14T04:33:22;98368.97;;;8.32;83.62
60974;BME280;46846;51.528;5.076;2023-03-14T04:35:47;98364.88;;;8.27;83.53
60974;BME280;46846;51.528;5.076;2023-03-14T04:38:15;98354.84;;;8.32;83.49
60974;BME280;46846;51.528;5.076;2023-03-14T04:40:41;98360.66;;;8.24;83.80
60974;BME280;46846;51.528;5.076;2023-03-14T04:43:08;98350.59;;;8.29;83.54
60974;BME280;46846;51.528;5.076;2023-03-14T04:45:34;98353.63;;;8.23;83.60
60974;BME280;46846;51.528;5.076;2023-03-14T04:48:00;98349.94;;;8.26;83.60
60974;BME280;46846;51.528;5.076;2023-03-14T04:50:25;98349.50;;;8.19;83.59
60974;BME280;46846;51.528;5.076;2023-03-14T04:52:51;98358.50;;;8.16;83.78
60974;BME280;46846;51.528;5.076;2023-03-14T04:55:16;98352.16;;;8.19;83.41
60974;BME280;46846;51.528;5.076;2023-03-14T04:57:41;98350.25;;;8.21;83.63
60974;BME280;46846;51.528;5.076;2023-03-14T05:00:07;98347.69;;;8.19;83.52
60974;BME280;46846;51.528;5.076;2023-03-14T05:02:34;98348.09;;;8.13;83.43
60974;BME280;46846;51.528;5.076;2023-03-14T05:04:59;98340.81;;;8.17;83.38
60974;BME280;46846;51.528;5.076;2023-03-14T05:07:25;98342.22;;;8.23;83.57
60974;BME280;46846;51.528;5.076;2023-03-14T05:09:50;98358.94;;;8.23;83.31
60974;BME280;46846;51.528;5.076;2023-03-14T05:12:17;98352.16;;;8.19;83.33
60974;BME280;46846;51.528;5.076;2023-03-14T05:14:43;98358.59;;;8.15;83.35
60974;BME280;46846;51.528;5.076;2023-03-14T05:17:08;98346.28;;;8.14;83.86
60974;BME280;46846;51.528;5.076;2023-03-14T05:19:35;98347.03;;;8.16;83.62
60974;BME280;46846;51.528;5.076;2023-03-14T05:22:00;98345.47;;;8.13;83.67
60974;BME280;46846;51.528;5.076;2023-03-14T05:24:25;98342.50;;;8.18;83.68
60974;BME280;46846;51.528;5.076;2023-03-14T05:26:51;98340.03;;;8.15;83.91
60974;BME280;46846;51.528;5.076;2023-03-14T05:29:16;98335.59;;;8.15;83.51
60974;BME280;46846;51.528;5.076;2023-03-14T05:31:41;98328.78;;;8.11;83.74
60974;BME280;46846;51.528;5.076;2023-03-14T05:34:07;98324.28;;;8.13;83.88
60974;BME280;46846;51.528;5.076;2023-03-14T05:36:32;98317.38;;;8.11;83.84
60974;BME280;46846;51.528;5.076;2023-03-14T05:38:57;98324.34;;;8.12;83.73
60974;BME280;46846;51.528;5.076;2023-03-14T05:41:23;98322.66;;;8.11;83.82
60974;BME280;46846;51.528;5.076;2023-03-14T05:43:48;98324.00;;;8.03;83.60
60974;BME280;46846;51.528;5.076;2023-03-14T05:46:13;98319.84;;;7.99;83.78
60974;BME280;46846;51.528;5.076;2023-03-14T05:48:39;98315.19;;;8.03;84.15
60974;BME280;46846;51.528;5.076;2023-03-14T05:51:04;98321.28;;;8.05;83.93
60974;BME280;46846;51.528;5.076;2023-03-14T05:53:33;98328.56;;;8.01;84.00
60974;BME280;46846;51.528;5.076;2023-03-14T05:55:58;98325.63;;;8.06;83.76
60974;BME280;46846;51.528;5.076;2023-03-14T05:58:23;98323.16;;;8.03;83.73
60974;BME280;46846;51.528;5.076;2023-03-14T06:00:50;98319.47;;;8.05;83.89
60974;BME280;46846;51.528;5.076;2023-03-14T06:03:15;98316.25;;;8.00;83.92
60974;BME280;46846;51.528;5.076;2023-03-14T06:05:40;98320.88;;;7.97;84.01
60974;BME280;46846;51.528;5.076;2023-03-14T06:08:06;98326.84;;;8.00;84.13
60974;BME280;46846;51.528;5.076;2023-03-14T06:10:31;98326.97;;;7.99;83.99
60974;BME280;46846;51.528;5.076;2023-03-14T06:12:56;98324.19;;;8.00;84.17
60974;BME280;46846;51.528;5.076;2023-03-14T06:15:22;98326.19;;;7.97;84.09
60974;BME280;46846;51.528;5.076;2023-03-14T06:17:47;98330.44;;;7.99;84.06
60974;BME280;46846;51.528;5.076;2023-03-14T06:20:13;98325.25;;;7.98;84.01
60974;BME280;46846;51.528;5.076;2023-03-14T06:22:38;98328.94;;;7.95;84.08
60974;BME280;46846;51.528;5.076;2023-03-14T06:25:06;98329.91;;;7.94;84.05
60974;BME280;46846;51.528;5.076;2023-03-14T06:27:32;98321.97;;;7.94;84.21
60974;BME280;46846;51.528;5.076;2023-03-14T06:29:57;98328.09;;;7.94;84.14
60974;BME280;46846;51.528;5.076;2023-03-14T06:32:22;98330.09;;;7.91;84.17
60974;BME280;46846;51.528;5.076;2023-03-14T06:34:48;98330.66;;;7.96;84.38
60974;BME280;46846;51.528;5.076;2023-03-14T06:37:13;98339.63;;;7.93;84.31
60974;BME280;46846;51.528;5.076;2023-03-14T06:39:38;98336.34;;;7.90;84.46
60974;BME280;46846;51.528;5.076;2023-03-14T06:42:04;98339.53;;;7.95;83.98
60974;BME280;46846;51.528;5.076;2023-03-14T06:44:30;98339.94;;;7.89;83.89
60974;BME280;46846;51.528;5.076;2023-03-14T06:46:55;98344.28;;;7.90;84.48
60974;BME280;46846;51.528;5.076;2023-03-14T06:49:20;98345.63;;;7.83;84.33
60974;BME280;46846;51.528;5.076;2023-03-14T06:51:46;98352.81;;;7.80;84.69
60974;BME280;46846;51.528;5.076;2023-03-14T06:54:14;98358.28;;;7.77;84.48
60974;BME280;46846;51.528;5.076;2023-03-14T06:56:39;98367.66;;;7.83;84.25
60974;BME280;46846;51.528;5.076;2023-03-14T06:59:06;98374.34;;;7.89;84.44
60974;BME280;46846;51.528;5.076;2023-03-14T07:01:31;98373.88;;;7.82;84.50
60974;BME280;46846;51.528;5.076;2023-03-14T07:04:00;98394.31;;;7.80;84.84
60974;BME280;46846;51.528;5.076;2023-03-14T07:06:25;98465.50;;;7.70;84.66
60974;BME280;46846;51.528;5.076;2023-03-14T07:08:51;98464.56;;;7.71;84.96
60974;BME280;46846;51.528;5.076;2023-03-14T07:11:16;98485.34;;;7.63;84.51
60974;BME280;46846;51.528;5.076;2023-03-14T07:13:42;98486.66;;;7.70;84.86
60974;BME280;46846;51.528;5.076;2023-03-14T07:16:07;98493.19;;;7.64;84.72
60974;BME280;46846;51.528;5.076;2023-03-14T07:18:33;98507.56;;;7.60;84.57
60974;BME280;46846;51.528;5.076;2023-03-14T07:20:58;98524.75;;;7.53;84.90
60974;BME280;46846;51.528;5.076;2023-03-14T07:23:24;98533.84;;;7.63;84.59
60974;BME280;46846;51.528;5.076;2023-03-14T07:25:49;98539.56;;;7.56;85.00
60974;BME280;46846;51.528;5.076;2023-03-14T07:28:16;98542.81;;;7.61;84.61
60974;BME280;46846;51.528;5.076;2023-03-14T07:30:41;98558.88;;;7.58;84.85
60974;BME280;46846;51.528;5.076;2023-03-14T07:33:07;98556.31;;;7.56;84.61
60974;BME280;46846;51.528;5.076;2023-03-14T07:35:32;98569.47;;;7.58;84.77
60974;BME280;46846;51.528;5.076;2023-03-14T07:37:58;98584.31;;;7.60;84.73
60974;BME280;46846;51.528;5.076;2023-03-14T07:40:23;98583.47;;;7.60;84.19
60974;BME280;46846;51.528;5.076;2023-03-14T07:42:48;98598.41;;;7.61;84.67
60974;BME280;46846;51.528;5.076;2023-03-14T07:45:14;98608.63;;;7.67;84.55
60974;BME280;46846;51.528;5.076;2023-03-14T07:47:40;98618.72;;;7.60;84.56
60974;BME280;46846;51.528;5.076;2023-03-14T07:50:05;98624.19;;;7.57;84.37
60974;BME280;46846;51.528;5.076;2023-03-14T07:52:31;98630.50;;;7.55;84.72
60974;BME280;46846;51.528;5.076;2023-03-14T07:54:56;98641.09;;;7.55;84.57
60974;BME280;46846;51.528;5.076;2023-03-14T07:57:22;98651.41;;;7.59;84.17
60974;BME280;46846;51.528;5.076;2023-03-14T07:59:47;98660.41;;;7.57;84.17
60974;BME280;46846;51.528;5.076;2023-03-14T08:02:13;98673.78;;;7.53;83.81
60974;BME280;46846;51.528;5.076;2023-03-14T08:04:38;98676.03;;;7.45;84.75
60974;BME280;46846;51.528;5.076;2023-03-14T08:07:04;98686.41;;;7.48;84.18
60974;BME280;46846;51.528;5.076;2023-03-14T08:09:29;98700.19;;;7.55;83.98
60974;BME280;46846;51.528;5.076;2023-03-14T08:11:54;98708.38;;;7.50;84.30
60974;BME280;46846;51.528;5.076;2023-03-14T08:14:20;98709.31;;;7.49;84.49
60974;BME280;46846;51.528;5.076;2023-03-14T08:16:45;98718.78;;;7.53;84.40
60974;BME280;46846;51.528;5.076;2023-03-14T08:19:11;98727.06;;;7.47;84.32
60974;BME280;46846;51.528;5.076;2023-03-14T08:21:36;98743.81;;;7.48;84.25
60974;BME280;46846;51.528;5.076;2023-03-14T08:24:02;98743.81;;;7.48;84.20
60974;BME280;46846;51.528;5.076;2023-03-14T08:26:27;98748.22;;;7.47;84.05
60974;BME280;46846;51.528;5.076;2023-03-14T08:28:53;98750.81;;;7.49;84.48
60974;BME280;46846;51.528;5.076;2023-03-14T08:31:18;98772.31;;;7.43;84.20
60974;BME280;46846;51.528;5.076;2023-03-14T08:33:43;98769.84;;;7.39;83.81
60974;BME280;46846;51.528;5.076;2023-03-14T08:36:09;98779.47;;;7.41;84.69
60974;BME280;46846;51.528;5.076;2023-03-14T08:38:35;98785.78;;;7.38;83.98
60974;BME280;46846;51.528;5.076;2023-03-14T08:41:01;98788.28;;;7.41;84.04
60974;BME280;46846;51.528;5.076;2023-03-14T08:43:28;98807.72;;;7.40;84.26
60974;BME280;46846;51.528;5.076;2023-03-14T08:45:57;98817.47;;;7.39;83.99
60974;BME280;46846;51.528;5.076;2023-03-14T08:48:22;98830.00;;;7.36;84.15
60974;BME280;46846;51.528;5.076;2023-03-14T08:50:48;98828.63;;;7.45;83.74
60974;BME280;46846;51.528;5.076;2023-03-14T08:53:13;98838.63;;;7.39;83.90
60974;BME280;46846;51.528;5.076;2023-03-14T08:55:38;98844.19;;;7.35;84.17
60974;BME280;46846;51.528;5.076;2023-03-14T08:58:04;98858.09;;;7.38;84.37
60974;BME280;46846;51.528;5.076;2023-03-14T09:00:29;98861.50;;;7.41;84.34
60974;BME280;46846;51.528;5.076;2023-03-14T09:02:54;98878.56;;;7.35;84.16
60974;BME280;46846;51.528;5.076;2023-03-14T09:05:20;98874.38;;;7.31;84.01
60974;BME280;46846;51.528;5.076;2023-03-14T09:07:45;98879.03;;;7.25;84.01
60974;BME280;46846;51.528;5.076;2023-03-14T09:10:11;98890.66;;;7.23;84.26
60974;BME280;46846;51.528;5.076;2023-03-14T09:12:36;98905.34;;;7.29;84.22
60974;BME280;46846;51.528;5.076;2023-03-14T09:15:02;98925.13;;;7.21;84.56
60974;BME280;46846;51.528;5.076;2023-03-14T09:17:28;98942.75;;;7.21;84.70
60974;BME280;46846;51.528;5.076;2023-03-14T09:19:53;98951.81;;;7.17;84.87
60974;BME280;46846;51.528;5.076;2023-03-14T09:22:18;98973.34;;;7.09;84.28
60974;BME280;46846;51.528;5.076;2023-03-14T09:24:45;98975.50;;;7.18;83.96
60974;BME280;46846;51.528;5.076;2023-03-14T09:27:11;98985.09;;;7.21;84.16
60974;BME280;46846;51.528;5.076;2023-03-14T09:29:37;98993.97;;;7.20;83.83
60974;BME280;46846;51.528;5.076;2023-03-14T09:32:02;99013.41;;;7.19;83.62
60974;BME280;46846;51.528;5.076;2023-03-14T09:34:28;99022.34;;;7.16;84.03
60974;BME280;46846;51.528;5.076;2023-03-14T09:36:54;99048.88;;;7.15;83.91
60974;BME280;46846;51.528;5.076;2023-03-14T09:39:19;99053.63;;;7.08;83.79
60974;BME280;46846;51.528;5.076;2023-03-14T09:41:47;99058.13;;;7.06;83.12
60974;BME280;46846;51.528;5.076;2023-03-14T09:44:29;99085.34;;;7.08;83.67
60974;BME280;46846;51.528;5.076;2023-03-14T09:46:57;99079.41;;;7.03;83.79
60974;BME280;46846;51.528;5.076;2023-03-14T09:49:31;99093.44;;;7.05;83.71
60974;BME280;46846;51.528;5.076;2023-03-14T09:52:00;99107.44;;;7.07;83.34
60974;BME280;46846;51.528;5.076;2023-03-14T09:54:39;99112.81;;;7.05;83.60
60974;BME280;46846;51.528;5.076;2023-03-14T09:57:12;99126.75;;;7.09;83.67
60974;BME280;46846;51.528;5.076;2023-03-14T09:59:39;99138.31;;;7.06;83.66
60974;BME280;46846;51.528;5.076;2023-03-14T10:02:25;99136.38;;;7.10;82.87
60974;BME280;46846;51.528;5.076;2023-03-14T10:04:53;99154.28;;;7.05;83.36
60974;BME280;46846;51.528;5.076;2023-03-14T10:07:30;99169.22;;;7.06;83.80
60974;BME280;46846;51.528;5.076;2023-03-14T10:09:56;99188.78;;;7.02;83.32
60974;BME280;46846;51.528;5.076;2023-03-14T10:12:35;99202.88;;;7.02;83.82
60974;BME280;46846;51.528;5.076;2023-03-14T10:15:04;99202.50;;;7.10;83.37
60974;BME280;46846;51.528;5.076;2023-03-14T10:17:38;99217.75;;;7.05;83.44
60974;BME280;46846;51.528;5.076;2023-03-14T10:20:04;99233.75;;;7.02;83.53
60974;BME280;46846;51.528;5.076;2023-03-14T10:22:31;99238.59;;;6.92;84.08
60974;BME280;46846;51.528;5.076;2023-03-14T10:25:02;99249.75;;;6.98;83.03
60974;BME280;46846;51.528;5.076;2023-03-14T10:27:31;99251.31;;;7.03;83.44
60974;BME280;46846;51.528;5.076;2023-03-14T10:30:03;99268.41;;;6.95;81.71
60974;BME280;46846;51.528;5.076;2023-03-14T10:32:34;99276.31;;;6.95;82.06
60974;BME280;46846;51.528;5.076;2023-03-14T10:35:26;99271.25;;;6.91;82.15
60974;BME280;46846;51.528;5.076;2023-03-14T10:38:03;99286.38;;;6.87;82.78
60974;BME280;46846;51.528;5.076;2023-03-14T10:40:33;99295.00;;;6.92;82.42
60974;BME280;46846;51.528;5.076;2023-03-14T10:43:04;99310.81;;;6.94;82.67
60974;BME280;46846;51.528;5.076;2023-03-14T10:45:41;99328.38;;;6.95;82.02
60974;BME280;46846;51.528;5.076;2023-03-14T10:50:48;99338.22;;;6.91;82.32
60974;BME280;46846;51.528;5.076;2023-03-14T10:53:16;99350.53;;;6.92;83.22
60974;BME280;46846;51.528;5.076;2023-03-14T10:55:44;99346.69;;;7.00;83.09
60974;BME280;46846;51.528;5.076;2023-03-14T11:01:02;99376.22;;;6.89;83.04
60974;BME280;46846;51.528;5.076;2023-03-14T11:03:32;99383.03;;;6.94;83.18
60974;BME280;46846;51.528;5.076;2023-03-14T11:06:27;99398.91;;;6.94;82.97
60974;BME280;46846;51.528;5.076;2023-03-14T11:11:27;99408.94;;;6.86;80.48
60974;BME280;46846;51.528;5.076;2023-03-14T11:16:44;99452.25;;;6.83;83.04
60974;BME280;46846;51.528;5.076;2023-03-14T11:21:59;99460.66;;;6.93;82.79
60974;BME280;46846;51.528;5.076;2023-03-14T11:24:43;99473.03;;;6.93;80.90
60974;BME280;46846;51.528;5.076;2023-03-14T11:27:23;99476.47;;;6.95;79.26
60974;BME280;46846;51.528;5.076;2023-03-14T11:32:57;99491.47;;;6.94;82.39
60974;BME280;46846;51.528;5.076;2023-03-14T11:35:30;99499.59;;;6.90;82.61
60974;BME280;46846;51.528;5.076;2023-03-14T11:40:37;99511.78;;;6.94;82.09
60974;BME280;46846;51.528;5.076;2023-03-14T11:43:20;99527.94;;;6.86;83.17
60974;BME280;46846;51.528;5.076;2023-03-14T11:45:50;99550.72;;;6.90;82.86
60974;BME280;46846;51.528;5.076;2023-03-14T11:48:28;99548.16;;;6.87;82.96
60974;BME280;46846;51.528;5.076;2023-03-14T11:50:59;99554.63;;;6.80;83.32
60974;BME280;46846;51.528;5.076;2023-03-14T11:53:52;99557.94;;;6.85;82.88
60974;BME280;46846;51.528;5.076;2023-03-14T11:56:41;99566.75;;;6.86;82.84
60974;BME280;46846;51.528;5.076;2023-03-14T12:02:22;99573.56;;;6.91;83.10
60974;BME280;46846;51.528;5.076;2023-03-14T12:10:44;99583.91;;;6.97;80.11
60974;BME280;46846;51.528;5.076;2023-03-14T12:13:13;99593.63;;;6.97;82.08
60974;BME280;46846;51.528;5.076;2023-03-14T12:15:42;99596.22;;;6.98;80.82
60974;BME280;46846;51.528;5.076;2023-03-14T12:18:31;99599.88;;;6.94;79.49
60974;BME280;46846;51.528;5.076;2023-03-14T12:21:00;99607.97;;;6.91;81.32
60974;BME280;46846;51.528;5.076;2023-03-14T12:23:33;99602.66;;;6.91;79.70
60974;BME280;46846;51.528;5.076;2023-03-14T12:26:27;99607.22;;;6.88;78.22
60974;BME280;46846;51.528;5.076;2023-03-14T12:41:52;99640.63;;;6.90;78.88
60974;BME280;46846;51.528;5.076;2023-03-14T12:44:44;99641.34;;;6.94;79.97
60974;BME280;46846;51.528;5.076;2023-03-14T12:49:42;99646.69;;;6.92;81.22
60974;BME280;46846;51.528;5.076;2023-03-14T12:52:19;99665.50;;;6.84;80.90
60974;BME280;46846;51.528;5.076;2023-03-14T12:54:58;99659.22;;;6.87;76.00
60974;BME280;46846;51.528;5.076;2023-03-14T12:57:42;99656.66;;;6.86;74.31
60974;BME280;46846;51.528;5.076;2023-03-14T13:00:24;99670.53;;;6.91;79.90
60974;BME280;46846;51.528;5.076;2023-03-14T13:03:15;99687.38;;;6.88;79.33
60974;BME280;46846;51.528;5.076;2023-03-14T13:05:59;99697.06;;;6.89;79.80
60974;BME280;46846;51.528;5.076;2023-03-14T13:08:43;99697.28;;;6.83;75.07
60974;BME280;46846;51.528;5.076;2023-03-14T13:11:18;99704.31;;;6.84;78.88
60974;BME280;46846;51.528;5.076;2023-03-14T13:13:49;99706.16;;;6.82;79.82
60974;BME280;46846;51.528;5.076;2023-03-14T13:16:20;99721.09;;;6.83;78.22
60974;BME280;46846;51.528;5.076;2023-03-14T13:18:50;99718.50;;;6.81;76.79
60974;BME280;46846;51.528;5.076;2023-03-14T13:21:27;99726.38;;;6.83;78.14
60974;BME280;46846;51.528;5.076;2023-03-14T13:23:58;99723.03;;;6.78;79.17
60974;BME280;46846;51.528;5.076;2023-03-14T13:26:32;99731.69;;;6.83;70.15
60974;BME280;46846;51.528;5.076;2023-03-14T13:28:58;99732.59;;;6.82;78.73
60974;BME280;46846;51.528;5.076;2023-03-14T13:31:24;99738.72;;;6.82;78.65
60974;BME280;46846;51.528;5.076;2023-03-14T13:34:01;99778.69;;;6.75;79.83
60974;BME280;46846;51.528;5.076;2023-03-14T13:36:27;99760.19;;;6.75;79.55
60974;BME280;46846;51.528;5.076;2023-03-14T13:39:00;99763.56;;;6.78;78.54
60974;BME280;46846;51.528;5.076;2023-03-14T13:41:27;99775.88;;;6.79;78.68
60974;BME280;46846;51.528;5.076;2023-03-14T13:44:09;99794.38;;;6.79;78.58
60974;BME280;46846;51.528;5.076;2023-03-14T13:46:39;99797.25;;;6.73;78.59
60974;BME280;46846;51.528;5.076;2023-03-14T13:49:07;99793.97;;;6.66;75.80
60974;BME280;46846;51.528;5.076;2023-03-14T13:51:38;99815.94;;;6.67;78.75
60974;BME280;46846;51.528;5.076;2023-03-14T13:54:13;99814.09;;;6.69;78.70
60974;BME280;46846;51.528;5.076;2023-03-14T13:56:39;99838.78;;;6.69;78.23
60974;BME280;46846;51.528;5.076;2023-03-14T13:59:04;99849.34;;;6.69;77.59
60974;BME280;46846;51.528;5.076;2023-03-14T14:01:35;99873.34;;;6.63;79.42
60974;BME280;46846;51.528;5.076;2023-03-14T14:04:07;99865.47;;;6.62;78.27
60974;BME280;46846;51.528;5.076;2023-03-14T14:06:35;99873.47;;;6.60;77.01
60974;BME280;46846;51.528;5.076;2023-03-14T14:09:16;99883.91;;;6.63;77.05